LFMP/PGF METAR and TAF weather

Enter ICAO airport designator
Station Type Date Time Source
LFMP METAR 2021/09/20 04:00 UTC NOAA

LFMP 200400Z AUTO 25005KT 200V320 CAVOK 18/11 Q1018 NOSIG


Station Type Date Time Source
LFMP Decoded METAR 2021/09/20 04:00 UTC NOAA

Perpignan, France (LFMP) 42-44N 002-52E 48M
Sep 20, 2021 - 12:00 AM EDT / 2021.09.20 0400 UTC
Wind: from the WSW (250 degrees) at 6 MPH (5 KT) (direction variable):0
Visibility: greater than 7 mile(s):0
Temperature: 64 F (18 C)
Dew Point: 51 F (11 C)
Relative Humidity: 63%
Pressure (altimeter): 30.06 in. Hg (1018 hPa)
ob: LFMP 200400Z AUTO 25005KT 200V320 CAVOK 18/11 Q1018 NOSIG
cycle: 4

Station Type Date Time Source
LFMP TAF 2021/09/20 03:47 UTC NOAA

TAF LFMP 200200Z 2003/2103 28012KT CAVOK
TEMPO 2011/2015 32015G30KT -SHRA FEW060TCU
TEMPO 2015/2021 SHRA BKN060TCU
TEMPO 2021/2103 32015G30KT

Example: see airport list